Observations for EXETER AIRPORT, United Kingdom (EGTE)

EGTE 221220Z 12015KT 9999 FEW010 SCT035 20/17 Q1016 
EGTE 221150Z 12014KT 9999 FEW008 SCT030 20/17 Q1017 
EGTE 221120Z 13013KT 9999 FEW008 SCT030 21/17 Q1017 
EGTE 221050Z 12010KT 9999 FEW008 SCT030 19/17 Q1017 
EGTE 221020Z 12012KT 9999 FEW005 SCT030 19/17 Q1017 
EGTE 220950Z 12012KT 15000 FEW005 SCT040 19/17 Q1017
EGTE 220920Z 12011KT 9000 SCT005 SCT040 17/16 Q1018 
EGTE 220850Z 11009KT 8000 -RA SCT004 17/16 Q1018
EGTE 220820Z 16007KT 8000 BKN004 16/16 Q1018
EGTE 220750Z 13011KT 9000 BKN005 16/16 Q1018
EGTE 220720Z 12009KT 8000 BKN005 16/16 Q1018
EGTE 220650Z 12010KT 6000 BKN002 16/15 Q1018
EGTE 220620Z 14007KT 5000 BR BKN003 15/15 Q1019 
EGTE 220550Z VRB02KT 5000 BR FEW002 BKN005 15/15 Q1019  
EGTE 220520Z 09001KT 5000 VCFG BKN003 15/15 Q1019   
EGTE 220450Z 11004KT 5000 BCFG FEW002 14/14 Q1019   
EGTE 220150Z 00002KT 6000 1400E BCFG NSC 15/15 Q1019
EGTE 220120Z 17002KT MIFG NSC 1615/15 Q1019 
EGTE 220020Z VRB02KT CAVOK 16/15 Q1019  
EGTE 212320Z VRB02KT CAVOK 16/15 Q1020  
EGTE 212250Z VRB02KT CAVOK 16/15 Q1020  
EGTE 212220Z VRB02KT 9999 FEW032 17/15 Q1020
EGTE 212150Z 15004KT 9999 FEW032 18/16 Q1020
EGTE 212120Z VRB02KT 9999 BKN033 19/16 Q1020
EGTE 212050Z 17005KT 9999 FEW026 BKN036 19/16 Q1020 
EGTE 211950Z 18006KT 9999 FEW030 SCT038 20/16 Q1020 
EGTE 211920Z 17005KT 9999 FEW015 SCT038 20/16 Q1020 
EGTE 211850Z 16007KT 9999 SCT039 21/17 Q1019
EGTE 211820Z 16007KT 9999 FEW 015 SCT040 21/17 Q1019
EGTE 211750Z 15006KT 9999 SCT041 22/17 Q1019
EGTE 211720Z 15007KT 9999 SCT041 22/18 Q1019
EGTE 211650Z 17004KT 9999 SCT038 23/18 Q1020
EGTE 211620Z 16005KT 9999 SCT040 22/18 Q1020
EGTE 211550Z 15005KT 9999 SCT035 22/18 Q1020
EGTE 211520Z 15006KT 9999 SCT035 21/17 Q1020
EGTE 211450Z 18007KT 9999 SCT033 21/17 Q1020
EGTE 211420Z 19007KT 9999 SCT030 22/17 Q1020
EGTE 211350Z 19007KT 9999 SCT035 22/18 Q1020
EGTE 211320Z 19005KT 9999 SCT030 22/18 Q1020
EGTE 211250Z 31003KT 9999 SCT025 23/17 Q1020
EGTE 211220Z VRB02KT 9999 FEW032 23/17 Q1020